sensor_id;sensor_type;location;lat;lon;timestamp;P1;durP1;ratioP1;P2;durP2;ratioP2
9834;SDS011;4956;50.996;13.716;2022-09-02T00:01:47;1.50;;;1.38;;
9834;SDS011;4956;50.996;13.716;2022-09-02T00:05:08;1.90;;;1.27;;
9834;SDS011;4956;50.996;13.716;2022-09-02T00:08:29;3.20;;;1.48;;
9834;SDS011;4956;50.996;13.716;2022-09-02T00:11:51;2.30;;;1.35;;
9834;SDS011;4956;50.996;13.716;2022-09-02T00:15:12;3.28;;;1.30;;
9834;SDS011;4956;50.996;13.716;2022-09-02T00:18:33;1.98;;;1.20;;
9834;SDS011;4956;50.996;13.716;2022-09-02T00:21:54;1.20;;;1.10;;
9834;SDS011;4956;50.996;13.716;2022-09-02T00:25:15;1.80;;;1.30;;
9834;SDS011;4956;50.996;13.716;2022-09-02T00:28:36;2.38;;;1.30;;
9834;SDS011;4956;50.996;13.716;2022-09-02T00:31:56;2.70;;;1.40;;
9834;SDS011;4956;50.996;13.716;2022-09-02T00:35:17;1.30;;;1.20;;
9834;SDS011;4956;50.996;13.716;2022-09-02T00:38:38;2.88;;;1.50;;
9834;SDS011;4956;50.996;13.716;2022-09-02T00:41:59;1.95;;;1.38;;
9834;SDS011;4956;50.996;13.716;2022-09-02T00:45:20;1.75;;;1.30;;
9834;SDS011;4956;50.996;13.716;2022-09-02T00:49:27;2.22;;;1.15;;
9834;SDS011;4956;50.996;13.716;2022-09-02T00:52:29;1.33;;;1.23;;
9834;SDS011;4956;50.996;13.716;2022-09-02T00:55:54;2.92;;;1.42;;
9834;SDS011;4956;50.996;13.716;2022-09-02T00:59:27;2.35;;;1.40;;
9834;SDS011;4956;50.996;13.716;2022-09-02T01:02:54;1.50;;;1.40;;
9834;SDS011;4956;50.996;13.716;2022-09-02T01:06:17;2.30;;;1.50;;
9834;SDS011;4956;50.996;13.716;2022-09-02T01:09:40;1.90;;;1.20;;
9834;SDS011;4956;50.996;13.716;2022-09-02T01:13:12;1.98;;;1.50;;
9834;SDS011;4956;50.996;13.716;2022-09-02T01:16:38;2.15;;;1.20;;
9834;SDS011;4956;50.996;13.716;2022-09-02T01:20:07;2.20;;;1.42;;
9834;SDS011;4956;50.996;13.716;2022-09-02T01:23:31;1.58;;;1.30;;
9834;SDS011;4956;50.996;13.716;2022-09-02T01:26:51;1.42;;;1.10;;
9834;SDS011;4956;50.996;13.716;2022-09-02T01:30:22;1.88;;;1.50;;
9834;SDS011;4956;50.996;13.716;2022-09-02T01:33:43;1.90;;;1.25;;
9834;SDS011;4956;50.996;13.716;2022-09-02T01:37:04;2.00;;;1.30;;
9834;SDS011;4956;50.996;13.716;2022-09-02T01:40:25;1.98;;;1.48;;
9834;SDS011;4956;50.996;13.716;2022-09-02T01:43:46;1.90;;;1.20;;
9834;SDS011;4956;50.996;13.716;2022-09-02T01:47:07;2.45;;;1.20;;
9834;SDS011;4956;50.996;13.716;2022-09-02T01:50:27;1.30;;;1.20;;
9834;SDS011;4956;50.996;13.716;2022-09-02T01:53:48;2.20;;;1.50;;
9834;SDS011;4956;50.996;13.716;2022-09-02T01:57:09;1.73;;;1.40;;
9834;SDS011;4956;50.996;13.716;2022-09-02T02:00:31;1.80;;;1.33;;
9834;SDS011;4956;50.996;13.716;2022-09-02T02:03:51;2.97;;;1.50;;
9834;SDS011;4956;50.996;13.716;2022-09-02T02:07:14;1.98;;;1.60;;
9834;SDS011;4956;50.996;13.716;2022-09-02T02:10:36;1.55;;;1.30;;
9834;SDS011;4956;50.996;13.716;2022-09-02T02:13:59;1.80;;;1.60;;
9834;SDS011;4956;50.996;13.716;2022-09-02T02:17:20;2.15;;;1.50;;
9834;SDS011;4956;50.996;13.716;2022-09-02T02:20:40;2.47;;;1.60;;
9834;SDS011;4956;50.996;13.716;2022-09-02T02:24:01;3.42;;;1.80;;
9834;SDS011;4956;50.996;13.716;2022-09-02T02:27:21;3.20;;;1.50;;
9834;SDS011;4956;50.996;13.716;2022-09-02T02:30:42;2.10;;;1.60;;
9834;SDS011;4956;50.996;13.716;2022-09-02T02:34:04;3.25;;;1.80;;
9834;SDS011;4956;50.996;13.716;2022-09-02T02:37:26;3.05;;;1.50;;
9834;SDS011;4956;50.996;13.716;2022-09-02T02:40:46;2.83;;;1.70;;
9834;SDS011;4956;50.996;13.716;2022-09-02T02:44:07;1.55;;;1.40;;
9834;SDS011;4956;50.996;13.716;2022-09-02T02:47:30;1.95;;;1.63;;
9834;SDS011;4956;50.996;13.716;2022-09-02T02:50:52;1.90;;;1.60;;
9834;SDS011;4956;50.996;13.716;2022-09-02T02:54:13;3.22;;;1.60;;
9834;SDS011;4956;50.996;13.716;2022-09-02T02:57:34;2.22;;;1.75;;
9834;SDS011;4956;50.996;13.716;2022-09-02T03:00:58;2.22;;;1.70;;
9834;SDS011;4956;50.996;13.716;2022-09-02T03:04:20;2.63;;;1.50;;
9834;SDS011;4956;50.996;13.716;2022-09-02T03:07:40;1.50;;;1.40;;
9834;SDS011;4956;50.996;13.716;2022-09-02T03:11:01;2.53;;;1.55;;
9834;SDS011;4956;50.996;13.716;2022-09-02T03:14:27;1.90;;;1.60;;
9834;SDS011;4956;50.996;13.716;2022-09-02T03:17:48;1.70;;;1.50;;
9834;SDS011;4956;50.996;13.716;2022-09-02T03:21:08;2.58;;;1.50;;
9834;SDS011;4956;50.996;13.716;2022-09-02T03:24:29;3.47;;;1.67;;
9834;SDS011;4956;50.996;13.716;2022-09-02T03:27:50;1.55;;;1.40;;
9834;SDS011;4956;50.996;13.716;2022-09-02T03:31:13;1.85;;;1.40;;
9834;SDS011;4956;50.996;13.716;2022-09-02T03:34:35;1.02;;;1.00;;
9834;SDS011;4956;50.996;13.716;2022-09-02T03:37:57;1.50;;;1.17;;
9834;SDS011;4956;50.996;13.716;2022-09-02T03:41:18;1.40;;;1.30;;
9834;SDS011;4956;50.996;13.716;2022-09-02T03:44:40;3.05;;;1.48;;
9834;SDS011;4956;50.996;13.716;2022-09-02T03:48:00;2.67;;;1.30;;
9834;SDS011;4956;50.996;13.716;2022-09-02T03:51:24;1.95;;;1.27;;
9834;SDS011;4956;50.996;13.716;2022-09-02T03:54:45;2.72;;;1.40;;
9834;SDS011;4956;50.996;13.716;2022-09-02T03:58:05;1.65;;;1.15;;
9834;SDS011;4956;50.996;13.716;2022-09-02T04:01:27;2.00;;;1.20;;
9834;SDS011;4956;50.996;13.716;2022-09-02T04:04:48;2.08;;;1.20;;
9834;SDS011;4956;50.996;13.716;2022-09-02T04:08:09;2.13;;;1.20;;
9834;SDS011;4956;50.996;13.716;2022-09-02T04:11:29;1.77;;;1.38;;
9834;SDS011;4956;50.996;13.716;2022-09-02T04:14:50;2.55;;;1.10;;
9834;SDS011;4956;50.996;13.716;2022-09-02T04:18:12;1.45;;;1.15;;
9834;SDS011;4956;50.996;13.716;2022-09-02T04:21:36;1.95;;;1.20;;
9834;SDS011;4956;50.996;13.716;2022-09-02T04:24:59;2.47;;;1.33;;
9834;SDS011;4956;50.996;13.716;2022-09-02T04:28:20;2.50;;;1.50;;
9834;SDS011;4956;50.996;13.716;2022-09-02T04:31:42;1.50;;;1.40;;
9834;SDS011;4956;50.996;13.716;2022-09-02T04:35:03;3.22;;;1.40;;
9834;SDS011;4956;50.996;13.716;2022-09-02T04:38:25;3.30;;;1.52;;
9834;SDS011;4956;50.996;13.716;2022-09-02T04:41:46;1.58;;;1.20;;
9834;SDS011;4956;50.996;13.716;2022-09-02T04:45:07;2.35;;;1.50;;
9834;SDS011;4956;50.996;13.716;2022-09-02T04:48:32;1.65;;;1.30;;
9834;SDS011;4956;50.996;13.716;2022-09-02T04:51:53;1.75;;;1.30;;
9834;SDS011;4956;50.996;13.716;2022-09-02T04:55:15;3.17;;;1.55;;
9834;SDS011;4956;50.996;13.716;2022-09-02T04:58:36;2.22;;;1.20;;
9834;SDS011;4956;50.996;13.716;2022-09-02T05:01:58;1.92;;;1.35;;
9834;SDS011;4956;50.996;13.716;2022-09-02T05:05:21;2.45;;;1.40;;
9834;SDS011;4956;50.996;13.716;2022-09-02T05:08:42;1.83;;;1.13;;
9834;SDS011;4956;50.996;13.716;2022-09-02T05:12:04;2.45;;;1.27;;
9834;SDS011;4956;50.996;13.716;2022-09-02T05:15:40;1.98;;;1.20;;
9834;SDS011;4956;50.996;13.716;2022-09-02T05:19:05;1.70;;;1.40;;
9834;SDS011;4956;50.996;13.716;2022-09-02T05:22:33;1.98;;;1.00;;
9834;SDS011;4956;50.996;13.716;2022-09-02T05:25:56;1.42;;;1.10;;
9834;SDS011;4956;50.996;13.716;2022-09-02T05:29:17;1.92;;;1.10;;
9834;SDS011;4956;50.996;13.716;2022-09-02T05:32:41;1.30;;;1.05;;
9834;SDS011;4956;50.996;13.716;2022-09-02T05:36:03;0.80;;;0.80;;
9834;SDS011;4956;50.996;13.716;2022-09-02T05:39:24;1.98;;;0.80;;
9834;SDS011;4956;50.996;13.716;2022-09-02T05:42:44;2.63;;;1.08;;
9834;SDS011;4956;50.996;13.716;2022-09-02T05:46:07;2.03;;;0.90;;
9834;SDS011;4956;50.996;13.716;2022-09-02T05:49:30;6.05;;;1.13;;
9834;SDS011;4956;50.996;13.716;2022-09-02T05:52:54;2.08;;;1.20;;
9834;SDS011;4956;50.996;13.716;2022-09-02T05:56:16;1.55;;;1.08;;
9834;SDS011;4956;50.996;13.716;2022-09-02T05:59:39;1.33;;;1.08;;
9834;SDS011;4956;50.996;13.716;2022-09-02T06:03:02;1.60;;;1.20;;
9834;SDS011;4956;50.996;13.716;2022-09-02T06:06:28;1.90;;;1.10;;
9834;SDS011;4956;50.996;13.716;2022-09-02T06:09:49;1.45;;;1.05;;
9834;SDS011;4956;50.996;13.716;2022-09-02T06:13:10;1.70;;;0.95;;
9834;SDS011;4956;50.996;13.716;2022-09-02T06:16:30;3.47;;;0.90;;
9834;SDS011;4956;50.996;13.716;2022-09-02T06:19:51;3.35;;;1.00;;
9834;SDS011;4956;50.996;13.716;2022-09-02T06:23:14;2.28;;;0.80;;
9834;SDS011;4956;50.996;13.716;2022-09-02T06:26:37;2.55;;;0.80;;
9834;SDS011;4956;50.996;13.716;2022-09-02T06:29:58;3.20;;;1.10;;
9834;SDS011;4956;50.996;13.716;2022-09-02T06:33:19;3.08;;;0.90;;
9834;SDS011;4956;50.996;13.716;2022-09-02T06:36:42;1.70;;;0.85;;
9834;SDS011;4956;50.996;13.716;2022-09-02T06:40:05;1.05;;;0.90;;
9834;SDS011;4956;50.996;13.716;2022-09-02T06:43:26;2.58;;;1.10;;
9834;SDS011;4956;50.996;13.716;2022-09-02T06:46:59;1.00;;;0.80;;
9834;SDS011;4956;50.996;13.716;2022-09-02T06:50:21;3.22;;;0.98;;
9834;SDS011;4956;50.996;13.716;2022-09-02T06:53:43;5.10;;;1.10;;
9834;SDS011;4956;50.996;13.716;2022-09-02T06:57:05;2.03;;;0.90;;
9834;SDS011;4956;50.996;13.716;2022-09-02T07:00:28;2.65;;;1.20;;
9834;SDS011;4956;50.996;13.716;2022-09-02T07:03:51;2.22;;;1.40;;
9834;SDS011;4956;50.996;13.716;2022-09-02T07:07:36;3.05;;;1.60;;
9834;SDS011;4956;50.996;13.716;2022-09-02T07:11:01;3.55;;;1.67;;
9834;SDS011;4956;50.996;13.716;2022-09-02T07:14:23;4.32;;;1.50;;
9834;SDS011;4956;50.996;13.716;2022-09-02T07:17:47;7.93;;;1.80;;
9834;SDS011;4956;50.996;13.716;2022-09-02T07:21:19;5.47;;;1.50;;
9834;SDS011;4956;50.996;13.716;2022-09-02T07:24:40;3.13;;;1.65;;
9834;SDS011;4956;50.996;13.716;2022-09-02T07:28:02;3.45;;;1.30;;
9834;SDS011;4956;50.996;13.716;2022-09-02T07:31:26;1.70;;;1.20;;
9834;SDS011;4956;50.996;13.716;2022-09-02T07:34:48;4.57;;;1.45;;
9834;SDS011;4956;50.996;13.716;2022-09-02T07:38:09;1.90;;;1.20;;
9834;SDS011;4956;50.996;13.716;2022-09-02T07:41:31;2.85;;;1.30;;
9834;SDS011;4956;50.996;13.716;2022-09-02T07:44:52;1.92;;;1.25;;
9834;SDS011;4956;50.996;13.716;2022-09-02T07:48:13;2.45;;;1.10;;
9834;SDS011;4956;50.996;13.716;2022-09-02T07:51:35;2.45;;;1.38;;
9834;SDS011;4956;50.996;13.716;2022-09-02T07:54:58;1.35;;;1.10;;
9834;SDS011;4956;50.996;13.716;2022-09-02T07:58:19;1.20;;;1.10;;
9834;SDS011;4956;50.996;13.716;2022-09-02T08:01:42;3.22;;;0.98;;
9834;SDS011;4956;50.996;13.716;2022-09-02T08:05:03;3.25;;;1.02;;
9834;SDS011;4956;50.996;13.716;2022-09-02T08:08:23;3.25;;;1.27;;
9834;SDS011;4956;50.996;13.716;2022-09-02T08:11:47;1.98;;;1.27;;
9834;SDS011;4956;50.996;13.716;2022-09-02T08:15:09;3.95;;;1.20;;
9834;SDS011;4956;50.996;13.716;2022-09-02T08:18:31;2.20;;;1.17;;
9834;SDS011;4956;50.996;13.716;2022-09-02T08:21:52;2.67;;;1.30;;
9834;SDS011;4956;50.996;13.716;2022-09-02T08:25:13;1.27;;;1.10;;
9834;SDS011;4956;50.996;13.716;2022-09-02T08:28:33;1.98;;;1.10;;
9834;SDS011;4956;50.996;13.716;2022-09-02T08:31:54;2.83;;;0.98;;
9834;SDS011;4956;50.996;13.716;2022-09-02T08:35:14;2.38;;;1.10;;
9834;SDS011;4956;50.996;13.716;2022-09-02T08:38:34;3.38;;;1.10;;
9834;SDS011;4956;50.996;13.716;2022-09-02T08:48:48;3.45;;;1.00;;
9834;SDS011;4956;50.996;13.716;2022-09-02T08:52:16;1.40;;;0.60;;
9834;SDS011;4956;50.996;13.716;2022-09-02T08:55:43;0.77;;;0.57;;
9834;SDS011;4956;50.996;13.716;2022-09-02T08:59:06;2.15;;;0.80;;
9834;SDS011;4956;50.996;13.716;2022-09-02T09:02:31;0.98;;;0.50;;
9834;SDS011;4956;50.996;13.716;2022-09-02T09:06:04;1.67;;;0.63;;
9834;SDS011;4956;50.996;13.716;2022-09-02T09:09:48;2.35;;;0.65;;
9834;SDS011;4956;50.996;13.716;2022-09-02T09:16:47;1.00;;;0.70;;
9834;SDS011;4956;50.996;13.716;2022-09-02T09:20:20;1.50;;;0.47;;
9834;SDS011;4956;50.996;13.716;2022-09-02T09:23:41;2.33;;;0.63;;
9834;SDS011;4956;50.996;13.716;2022-09-02T09:27:12;3.80;;;0.65;;
9834;SDS011;4956;50.996;13.716;2022-09-02T09:30:34;1.48;;;0.70;;
9834;SDS011;4956;50.996;13.716;2022-09-02T09:33:55;1.08;;;0.60;;
9834;SDS011;4956;50.996;13.716;2022-09-02T09:37:33;0.50;;;0.50;;
9834;SDS011;4956;50.996;13.716;2022-09-02T09:41:10;2.45;;;0.52;;
9834;SDS011;4956;50.996;13.716;2022-09-02T09:44:35;2.00;;;0.60;;
9834;SDS011;4956;50.996;13.716;2022-09-02T09:48:14;0.75;;;0.57;;
9834;SDS011;4956;50.996;13.716;2022-09-02T09:51:48;1.05;;;0.50;;
9834;SDS011;4956;50.996;13.716;2022-09-02T09:55:16;0.85;;;0.50;;
9834;SDS011;4956;50.996;13.716;2022-09-02T10:01:59;1.05;;;0.52;;
9834;SDS011;4956;50.996;13.716;2022-09-02T10:08:49;0.32;;;0.30;;
9834;SDS011;4956;50.996;13.716;2022-09-02T10:12:11;1.75;;;0.50;;
9834;SDS011;4956;50.996;13.716;2022-09-02T10:19:00;0.52;;;0.43;;
9834;SDS011;4956;50.996;13.716;2022-09-02T10:22:36;0.50;;;0.30;;
9834;SDS011;4956;50.996;13.716;2022-09-02T10:26:05;1.27;;;0.47;;
9834;SDS011;4956;50.996;13.716;2022-09-02T10:48:14;0.98;;;0.50;;
9834;SDS011;4956;50.996;13.716;2022-09-02T10:51:44;2.25;;;0.50;;
9834;SDS011;4956;50.996;13.716;2022-09-02T10:58:59;1.35;;;0.50;;
9834;SDS011;4956;50.996;13.716;2022-09-02T11:02:29;0.45;;;0.30;;
9834;SDS011;4956;50.996;13.716;2022-09-02T11:06:13;4.35;;;0.75;;
9834;SDS011;4956;50.996;13.716;2022-09-02T11:09:42;2.47;;;0.40;;
9834;SDS011;4956;50.996;13.716;2022-09-02T11:13:05;1.17;;;0.40;;
9834;SDS011;4956;50.996;13.716;2022-09-02T11:16:34;0.85;;;0.40;;
9834;SDS011;4956;50.996;13.716;2022-09-02T11:23:48;0.40;;;0.30;;
9834;SDS011;4956;50.996;13.716;2022-09-02T11:30:59;2.15;;;0.35;;
9834;SDS011;4956;50.996;13.716;2022-09-02T11:34:33;0.60;;;0.40;;
9834;SDS011;4956;50.996;13.716;2022-09-02T11:38:00;0.93;;;0.30;;
9834;SDS011;4956;50.996;13.716;2022-09-02T11:45:21;0.60;;;0.30;;
9834;SDS011;4956;50.996;13.716;2022-09-02T11:55:52;1.95;;;0.60;;
9834;SDS011;4956;50.996;13.716;2022-09-02T11:59:19;0.73;;;0.50;;
9834;SDS011;4956;50.996;13.716;2022-09-02T12:02:44;0.63;;;0.50;;
9834;SDS011;4956;50.996;13.716;2022-09-02T12:06:12;0.70;;;0.40;;
9834;SDS011;4956;50.996;13.716;2022-09-02T12:27:22;1.48;;;0.40;;
9834;SDS011;4956;50.996;13.716;2022-09-02T12:37:51;0.70;;;0.40;;
9834;SDS011;4956;50.996;13.716;2022-09-02T12:41:23;1.10;;;0.50;;
9834;SDS011;4956;50.996;13.716;2022-09-02T12:48:36;0.47;;;0.40;;
9834;SDS011;4956;50.996;13.716;2022-09-02T12:55:23;0.40;;;0.40;;
9834;SDS011;4956;50.996;13.716;2022-09-02T12:58:47;2.60;;;0.70;;
9834;SDS011;4956;50.996;13.716;2022-09-02T13:05:58;0.90;;;0.50;;
9834;SDS011;4956;50.996;13.716;2022-09-02T13:09:30;0.88;;;0.50;;
9834;SDS011;4956;50.996;13.716;2022-09-02T13:13:21;1.58;;;0.38;;
9834;SDS011;4956;50.996;13.716;2022-09-02T13:24:28;0.70;;;0.50;;
9834;SDS011;4956;50.996;13.716;2022-09-02T13:31:36;0.80;;;0.40;;
9834;SDS011;4956;50.996;13.716;2022-09-02T13:35:01;0.60;;;0.60;;
9834;SDS011;4956;50.996;13.716;2022-09-02T13:38:25;0.75;;;0.52;;
9834;SDS011;4956;50.996;13.716;2022-09-02T13:41:46;0.68;;;0.55;;
9834;SDS011;4956;50.996;13.716;2022-09-02T13:45:12;0.90;;;0.40;;
9834;SDS011;4956;50.996;13.716;2022-09-02T13:48:36;1.40;;;0.50;;
9834;SDS011;4956;50.996;13.716;2022-09-02T13:51:58;1.17;;;0.60;;
9834;SDS011;4956;50.996;13.716;2022-09-02T13:55:18;0.50;;;0.50;;
9834;SDS011;4956;50.996;13.716;2022-09-02T13:58:40;0.85;;;0.50;;
9834;SDS011;4956;50.996;13.716;2022-09-02T14:02:15;0.40;;;0.40;;
9834;SDS011;4956;50.996;13.716;2022-09-02T14:05:55;2.50;;;0.77;;
9834;SDS011;4956;50.996;13.716;2022-09-02T14:09:20;3.13;;;0.80;;
9834;SDS011;4956;50.996;13.716;2022-09-02T14:12:43;2.03;;;0.60;;
9834;SDS011;4956;50.996;13.716;2022-09-02T14:20:18;0.50;;;0.50;;
9834;SDS011;4956;50.996;13.716;2022-09-02T14:23:46;1.35;;;0.63;;
9834;SDS011;4956;50.996;13.716;2022-09-02T14:27:15;1.23;;;0.65;;
9834;SDS011;4956;50.996;13.716;2022-09-02T14:30:39;2.15;;;0.60;;
9834;SDS011;4956;50.996;13.716;2022-09-02T14:34:00;1.05;;;0.63;;
9834;SDS011;4956;50.996;13.716;2022-09-02T14:40:44;2.05;;;0.60;;
9834;SDS011;4956;50.996;13.716;2022-09-02T14:44:08;0.70;;;0.70;;
9834;SDS011;4956;50.996;13.716;2022-09-02T14:47:30;0.90;;;0.52;;
9834;SDS011;4956;50.996;13.716;2022-09-02T14:50:59;2.65;;;1.33;;
9834;SDS011;4956;50.996;13.716;2022-09-02T14:54:38;2.17;;;0.57;;
9834;SDS011;4956;50.996;13.716;2022-09-02T14:58:02;1.42;;;0.75;;
9834;SDS011;4956;50.996;13.716;2022-09-02T15:01:23;1.83;;;0.90;;
9834;SDS011;4956;50.996;13.716;2022-09-02T15:04:43;0.87;;;0.67;;
9834;SDS011;4956;50.996;13.716;2022-09-02T15:08:03;1.60;;;0.60;;
9834;SDS011;4956;50.996;13.716;2022-09-02T15:11:23;1.10;;;0.63;;
9834;SDS011;4956;50.996;13.716;2022-09-02T15:14:44;1.27;;;0.60;;
9834;SDS011;4956;50.996;13.716;2022-09-02T15:18:05;1.63;;;0.85;;
9834;SDS011;4956;50.996;13.716;2022-09-02T15:21:28;0.95;;;0.73;;
9834;SDS011;4956;50.996;13.716;2022-09-02T15:24:48;0.93;;;0.65;;
9834;SDS011;4956;50.996;13.716;2022-09-02T15:28:09;3.88;;;1.73;;
9834;SDS011;4956;50.996;13.716;2022-09-02T15:31:30;0.75;;;0.63;;
9834;SDS011;4956;50.996;13.716;2022-09-02T15:34:50;0.70;;;0.70;;
9834;SDS011;4956;50.996;13.716;2022-09-02T15:38:10;1.70;;;0.87;;
9834;SDS011;4956;50.996;13.716;2022-09-02T15:41:31;1.20;;;0.80;;
9834;SDS011;4956;50.996;13.716;2022-09-02T15:44:51;1.45;;;0.70;;
9834;SDS011;4956;50.996;13.716;2022-09-02T15:48:11;1.60;;;0.70;;
9834;SDS011;4956;50.996;13.716;2022-09-02T15:51:32;2.55;;;0.80;;
9834;SDS011;4956;50.996;13.716;2022-09-02T15:54:53;1.67;;;0.60;;
9834;SDS011;4956;50.996;13.716;2022-09-02T15:58:14;3.78;;;0.90;;
9834;SDS011;4956;50.996;13.716;2022-09-02T16:01:34;2.27;;;0.70;;
9834;SDS011;4956;50.996;13.716;2022-09-02T16:04:57;2.85;;;0.70;;
9834;SDS011;4956;50.996;13.716;2022-09-02T16:08:17;1.13;;;0.70;;
9834;SDS011;4956;50.996;13.716;2022-09-02T16:11:39;1.65;;;0.80;;
9834;SDS011;4956;50.996;13.716;2022-09-02T16:15:00;0.82;;;0.73;;
9834;SDS011;4956;50.996;13.716;2022-09-02T16:18:20;1.02;;;0.70;;
9834;SDS011;4956;50.996;13.716;2022-09-02T16:21:41;3.15;;;0.90;;
9834;SDS011;4956;50.996;13.716;2022-09-02T16:25:01;1.95;;;1.00;;
9834;SDS011;4956;50.996;13.716;2022-09-02T16:28:21;2.73;;;1.30;;
9834;SDS011;4956;50.996;13.716;2022-09-02T16:31:43;2.00;;;1.37;;
9834;SDS011;4956;50.996;13.716;2022-09-02T16:35:04;2.78;;;2.10;;
9834;SDS011;4956;50.996;13.716;2022-09-02T16:38:25;2.05;;;1.30;;
9834;SDS011;4956;50.996;13.716;2022-09-02T16:41:47;2.72;;;1.80;;
9834;SDS011;4956;50.996;13.716;2022-09-02T16:45:11;2.75;;;1.25;;
9834;SDS011;4956;50.996;13.716;2022-09-02T16:48:31;1.30;;;0.90;;
9834;SDS011;4956;50.996;13.716;2022-09-02T16:51:54;1.55;;;1.00;;
9834;SDS011;4956;50.996;13.716;2022-09-02T16:55:15;1.33;;;0.77;;
9834;SDS011;4956;50.996;13.716;2022-09-02T16:58:37;1.42;;;0.88;;
9834;SDS011;4956;50.996;13.716;2022-09-02T17:01:57;2.80;;;1.00;;
9834;SDS011;4956;50.996;13.716;2022-09-02T17:05:18;2.97;;;0.98;;
9834;SDS011;4956;50.996;13.716;2022-09-02T17:08:38;1.73;;;1.00;;
9834;SDS011;4956;50.996;13.716;2022-09-02T17:12:01;1.65;;;0.88;;
9834;SDS011;4956;50.996;13.716;2022-09-02T17:15:21;1.05;;;0.80;;
9834;SDS011;4956;50.996;13.716;2022-09-02T17:18:43;1.15;;;0.73;;
9834;SDS011;4956;50.996;13.716;2022-09-02T17:22:03;1.05;;;0.80;;
9834;SDS011;4956;50.996;13.716;2022-09-02T17:25:23;0.98;;;0.85;;
9834;SDS011;4956;50.996;13.716;2022-09-02T17:28:44;2.88;;;0.80;;
9834;SDS011;4956;50.996;13.716;2022-09-02T17:32:08;0.95;;;0.77;;
9834;SDS011;4956;50.996;13.716;2022-09-02T17:35:28;2.17;;;1.38;;
9834;SDS011;4956;50.996;13.716;2022-09-02T17:38:53;2.67;;;1.90;;
9834;SDS011;4956;50.996;13.716;2022-09-02T17:42:19;2.50;;;1.27;;
9834;SDS011;4956;50.996;13.716;2022-09-02T17:45:40;0.90;;;0.70;;
9834;SDS011;4956;50.996;13.716;2022-09-02T17:49:01;1.23;;;0.90;;
9834;SDS011;4956;50.996;13.716;2022-09-02T17:52:22;1.80;;;0.98;;
9834;SDS011;4956;50.996;13.716;2022-09-02T17:55:43;1.45;;;0.90;;
9834;SDS011;4956;50.996;13.716;2022-09-02T17:59:07;1.77;;;1.10;;
9834;SDS011;4956;50.996;13.716;2022-09-02T18:06:42;1.52;;;0.80;;
9834;SDS011;4956;50.996;13.716;2022-09-02T18:10:04;1.20;;;1.10;;
9834;SDS011;4956;50.996;13.716;2022-09-02T18:24:05;4.75;;;1.70;;
9834;SDS011;4956;50.996;13.716;2022-09-02T18:39:32;9.73;;;5.30;;
9834;SDS011;4956;50.996;13.716;2022-09-02T18:43:06;4.85;;;2.42;;
9834;SDS011;4956;50.996;13.716;2022-09-02T18:46:43;3.70;;;1.90;;
9834;SDS011;4956;50.996;13.716;2022-09-02T18:50:06;3.22;;;1.70;;
9834;SDS011;4956;50.996;13.716;2022-09-02T18:53:29;2.60;;;1.50;;
9834;SDS011;4956;50.996;13.716;2022-09-02T18:56:52;3.20;;;1.70;;
9834;SDS011;4956;50.996;13.716;2022-09-02T19:00:14;5.28;;;2.00;;
9834;SDS011;4956;50.996;13.716;2022-09-02T19:03:36;4.82;;;2.13;;
9834;SDS011;4956;50.996;13.716;2022-09-02T19:06:56;4.03;;;2.08;;
9834;SDS011;4956;50.996;13.716;2022-09-02T19:10:37;2.42;;;1.70;;
9834;SDS011;4956;50.996;13.716;2022-09-02T19:14:01;2.35;;;1.55;;
9834;SDS011;4956;50.996;13.716;2022-09-02T19:17:28;2.15;;;1.30;;
9834;SDS011;4956;50.996;13.716;2022-09-02T19:20:48;2.33;;;1.20;;
9834;SDS011;4956;50.996;13.716;2022-09-02T19:24:10;2.53;;;2.00;;
9834;SDS011;4956;50.996;13.716;2022-09-02T19:27:33;10.90;;;7.78;;
9834;SDS011;4956;50.996;13.716;2022-09-02T19:31:00;10.65;;;7.50;;
9834;SDS011;4956;50.996;13.716;2022-09-02T19:34:23;5.40;;;3.95;;
9834;SDS011;4956;50.996;13.716;2022-09-02T19:37:50;6.80;;;3.08;;
9834;SDS011;4956;50.996;13.716;2022-09-02T19:41:12;5.53;;;2.20;;
9834;SDS011;4956;50.996;13.716;2022-09-02T19:44:32;4.27;;;1.93;;
9834;SDS011;4956;50.996;13.716;2022-09-02T19:47:52;3.67;;;1.30;;
9834;SDS011;4956;50.996;13.716;2022-09-02T19:51:14;2.25;;;1.20;;
9834;SDS011;4956;50.996;13.716;2022-09-02T19:54:35;1.98;;;1.08;;
9834;SDS011;4956;50.996;13.716;2022-09-02T19:57:56;1.98;;;1.30;;
9834;SDS011;4956;50.996;13.716;2022-09-02T20:01:18;2.08;;;1.50;;
9834;SDS011;4956;50.996;13.716;2022-09-02T20:04:39;2.67;;;1.80;;
9834;SDS011;4956;50.996;13.716;2022-09-02T20:07:59;2.50;;;1.52;;
9834;SDS011;4956;50.996;13.716;2022-09-02T20:11:19;2.55;;;1.52;;
9834;SDS011;4956;50.996;13.716;2022-09-02T20:14:40;1.53;;;1.17;;
9834;SDS011;4956;50.996;13.716;2022-09-02T20:18:06;1.65;;;1.10;;
9834;SDS011;4956;50.996;13.716;2022-09-02T20:21:34;1.60;;;0.90;;
9834;SDS011;4956;50.996;13.716;2022-09-02T20:25:01;2.83;;;1.27;;
9834;SDS011;4956;50.996;13.716;2022-09-02T20:28:25;1.40;;;1.10;;
9834;SDS011;4956;50.996;13.716;2022-09-02T20:49:51;2.17;;;1.20;;
9834;SDS011;4956;50.996;13.716;2022-09-02T20:57:18;2.75;;;1.20;;
9834;SDS011;4956;50.996;13.716;2022-09-02T21:00:41;1.55;;;1.10;;
9834;SDS011;4956;50.996;13.716;2022-09-02T21:04:36;2.90;;;1.40;;
9834;SDS011;4956;50.996;13.716;2022-09-02T21:08:03;1.27;;;1.17;;
9834;SDS011;4956;50.996;13.716;2022-09-02T21:11:25;1.52;;;1.05;;
9834;SDS011;4956;50.996;13.716;2022-09-02T21:14:51;1.50;;;1.08;;
9834;SDS011;4956;50.996;13.716;2022-09-02T21:18:19;2.70;;;1.30;;
9834;SDS011;4956;50.996;13.716;2022-09-02T21:21:52;2.85;;;1.25;;
9834;SDS011;4956;50.996;13.716;2022-09-02T21:28:42;1.42;;;1.20;;
9834;SDS011;4956;50.996;13.716;2022-09-02T21:35:48;1.52;;;1.20;;
9834;SDS011;4956;50.996;13.716;2022-09-02T21:39:11;2.17;;;1.20;;
9834;SDS011;4956;50.996;13.716;2022-09-02T21:56:25;2.38;;;1.10;;
9834;SDS011;4956;50.996;13.716;2022-09-02T21:59:58;1.55;;;1.00;;
9834;SDS011;4956;50.996;13.716;2022-09-02T22:14:27;1.50;;;1.02;;
9834;SDS011;4956;50.996;13.716;2022-09-02T22:17:51;1.48;;;1.17;;
9834;SDS011;4956;50.996;13.716;2022-09-02T22:21:33;2.10;;;1.25;;
9834;SDS011;4956;50.996;13.716;2022-09-02T22:25:06;1.88;;;1.10;;
9834;SDS011;4956;50.996;13.716;2022-09-02T22:28:47;1.70;;;1.20;;
9834;SDS011;4956;50.996;13.716;2022-09-02T22:32:10;1.83;;;1.08;;
9834;SDS011;4956;50.996;13.716;2022-09-02T22:39:30;3.13;;;1.27;;
9834;SDS011;4956;50.996;13.716;2022-09-02T22:42:55;1.40;;;1.05;;
9834;SDS011;4956;50.996;13.716;2022-09-02T22:46:32;1.35;;;1.10;;
9834;SDS011;4956;50.996;13.716;2022-09-02T22:50:26;1.55;;;1.20;;
9834;SDS011;4956;50.996;13.716;2022-09-02T22:54:10;1.95;;;1.10;;
9834;SDS011;4956;50.996;13.716;2022-09-02T22:57:46;1.60;;;1.15;;
9834;SDS011;4956;50.996;13.716;2022-09-02T23:01:13;1.00;;;0.90;;
9834;SDS011;4956;50.996;13.716;2022-09-02T23:08:15;1.40;;;1.05;;
9834;SDS011;4956;50.996;13.716;2022-09-02T23:15:35;2.15;;;1.38;;
9834;SDS011;4956;50.996;13.716;2022-09-02T23:19:07;2.83;;;1.55;;
9834;SDS011;4956;50.996;13.716;2022-09-02T23:29:33;1.30;;;1.20;;
9834;SDS011;4956;50.996;13.716;2022-09-02T23:33:06;1.27;;;1.00;;
9834;SDS011;4956;50.996;13.716;2022-09-02T23:36:49;2.75;;;1.10;;
9834;SDS011;4956;50.996;13.716;2022-09-02T23:40:21;3.35;;;1.13;;
9834;SDS011;4956;50.996;13.716;2022-09-02T23:43:52;1.20;;;1.10;;
9834;SDS011;4956;50.996;13.716;2022-09-02T23:54:42;1.13;;;0.95;;
9834;SDS011;4956;50.996;13.716;2022-09-02T23:58:13;2.08;;;1.00;;
